Time;durP1;ratioP1;P1;durP2;ratioP2;P2;SDS_P1;SDS_P2;PMS_P1;PMS_P2;Temp;Humidity;BMP_temperature;BMP_pressure;BME280_temperature;BME280_humidity;BME280_pressure;Samples;Min_cycle;Max_cycle;Signal;HPM_P1;HPM_P2
2024/03/26 00:00:10;;;;;;;0.40;0.40;;;16.50;67.70;;;;;;5032676;28;20033;-78
2024/03/26 00:02:36;;;;;;;0.60;0.60;;;16.50;67.80;;;;;;5002921;28;20053;-78
2024/03/26 00:05:02;;;;;;;0.40;0.40;;;16.50;67.80;;;;;;4995128;28;20050;-78
2024/03/26 00:07:28;;;;;;;0.40;0.40;;;16.50;67.80;;;;;;4981892;28;20041;-78
2024/03/26 00:09:54;;;;;;;1.13;0.47;;;16.50;67.80;;;;;;4980861;28;20053;-78
2024/03/26 00:12:19;;;;;;;0.30;0.30;;;16.50;67.80;;;;;;4988531;28;20034;-78
2024/03/26 00:14:46;;;;;;;0.40;0.40;;;16.50;67.80;;;;;;5025956;28;20069;-78
2024/03/26 00:17:13;;;;;;;0.52;0.52;;;16.50;67.80;;;;;;5008595;28;20042;-78
2024/03/26 00:19:38;;;;;;;1.80;0.75;;;16.50;67.80;;;;;;5023613;28;20045;-77
2024/03/26 00:22:04;;;;;;;0.40;0.40;;;16.50;67.80;;;;;;5013103;28;20057;-77
2024/03/26 00:24:29;;;;;;;0.65;0.45;;;16.50;67.80;;;;;;5022139;28;20050;-77
2024/03/26 00:26:55;;;;;;;0.40;0.40;;;16.50;67.80;;;;;;5019424;28;20046;-77
2024/03/26 00:29:21;;;;;;;0.60;0.40;;;16.50;67.80;;;;;;5025607;28;20045;-78
2024/03/26 00:31:46;;;;;;;0.50;0.50;;;16.50;67.80;;;;;;5024848;28;22081;-78
2024/03/26 00:34:12;;;;;;;0.40;0.40;;;16.40;67.70;;;;;;5026210;28;20041;-78
2024/03/26 00:36:38;;;;;;;0.40;0.40;;;16.40;67.80;;;;;;5024651;28;20110;-78
2024/03/26 00:39:03;;;;;;;0.50;0.50;;;16.50;67.80;;;;;;5026887;28;20037;-78
2024/03/26 00:41:29;;;;;;;0.50;0.43;;;16.50;67.90;;;;;;5016044;28;20032;-78
2024/03/26 00:43:54;;;;;;;0.68;0.68;;;16.40;67.80;;;;;;5020392;28;20063;-77
2024/03/26 00:46:20;;;;;;;0.88;0.63;;;16.40;67.80;;;;;;5024423;28;20033;-77
2024/03/26 00:48:45;;;;;;;0.52;0.40;;;16.40;67.90;;;;;;5030494;28;20507;-78
2024/03/26 00:51:11;;;;;;;0.45;0.45;;;16.40;67.90;;;;;;5018753;28;20099;-78
2024/03/26 00:53:37;;;;;;;0.50;0.50;;;16.40;67.90;;;;;;5027246;28;20505;-77
2024/03/26 00:56:03;;;;;;;0.43;0.43;;;16.50;67.90;;;;;;5020450;28;20045;-78
2024/03/26 00:58:29;;;;;;;0.57;0.40;;;16.40;68.00;;;;;;5029388;28;20584;-78
2024/03/26 01:00:54;;;;;;;0.40;0.38;;;16.50;68.00;;;;;;5011993;28;20038;-78
2024/03/26 01:03:20;;;;;;;0.50;0.50;;;16.40;67.90;;;;;;5001097;28;20042;-77
2024/03/26 01:05:55;;;;;;;0.30;0.30;;;16.50;68.00;;;;;;5017755;28;20046;-78
2024/03/26 01:08:20;;;;;;;0.40;0.40;;;16.40;68.00;;;;;;4999130;28;20053;-77
2024/03/26 01:10:46;;;;;;;0.50;0.30;;;16.50;68.00;;;;;;5002357;28;20042;-78
2024/03/26 01:13:12;;;;;;;0.30;0.30;;;16.40;68.10;;;;;;4999921;28;20050;-78
2024/03/26 01:15:38;;;;;;;0.63;0.40;;;16.40;68.00;;;;;;4994106;28;20061;-78
2024/03/26 01:18:03;;;;;;;0.60;0.60;;;16.40;68.00;;;;;;4999114;28;20056;-77
2024/03/26 01:20:29;;;;;;;0.40;0.40;;;16.40;68.10;;;;;;4989395;28;20730;-78
2024/03/26 01:22:54;;;;;;;0.43;0.40;;;16.40;68.10;;;;;;5010165;28;20057;-78
2024/03/26 01:25:20;;;;;;;0.50;0.38;;;16.40;68.10;;;;;;5022371;28;20045;-78
2024/03/26 01:27:46;;;;;;;0.30;0.30;;;16.40;68.20;;;;;;5025847;28;20045;-78
2024/03/26 01:30:11;;;;;;;0.40;0.40;;;16.40;68.10;;;;;;5022095;28;20397;-78
2024/03/26 01:32:37;;;;;;;0.40;0.40;;;16.40;68.20;;;;;;5024175;28;20133;-78
2024/03/26 01:35:03;;;;;;;0.45;0.45;;;16.40;68.20;;;;;;5014519;28;20061;-78
2024/03/26 01:37:29;;;;;;;0.50;0.50;;;16.40;68.20;;;;;;5028101;28;20049;-78
2024/03/26 01:39:54;;;;;;;0.50;0.45;;;16.40;68.30;;;;;;5034188;28;20053;-78
2024/03/26 01:42:20;;;;;;;0.30;0.30;;;16.40;68.20;;;;;;5004443;28;20041;-78
2024/03/26 01:44:46;;;;;;;0.30;0.30;;;16.40;68.20;;;;;;4977990;28;20486;-81
2024/03/26 01:47:11;;;;;;;0.70;0.60;;;16.40;68.20;;;;;;4988677;28;20096;-80
2024/03/26 01:49:37;;;;;;;0.40;0.40;;;16.40;68.30;;;;;;4989180;28;20133;-80
2024/03/26 01:52:02;;;;;;;0.40;0.40;;;16.40;68.20;;;;;;4987700;28;20117;-80
2024/03/26 01:54:28;;;;;;;0.63;0.47;;;16.40;68.20;;;;;;4986658;28;20045;-80
2024/03/26 01:56:54;;;;;;;0.38;0.38;;;16.40;68.20;;;;;;4976073;28;20594;-80
2024/03/26 01:59:20;;;;;;;0.30;0.30;;;16.40;68.20;;;;;;4980583;28;20096;-79
2024/03/26 02:01:45;;;;;;;0.50;0.47;;;16.40;68.30;;;;;;4989426;28;20042;-80
2024/03/26 02:04:11;;;;;;;0.30;0.30;;;16.40;68.20;;;;;;4972557;28;20389;-80
2024/03/26 02:06:36;;;;;;;0.32;0.32;;;16.40;68.90;;;;;;4979228;28;20047;-80
2024/03/26 02:09:02;;;;;;;0.43;0.40;;;16.40;68.20;;;;;;4982383;28;20593;-80
2024/03/26 02:11:28;;;;;;;0.30;0.30;;;16.40;68.30;;;;;;5005631;28;20221;-81
2024/03/26 02:13:54;;;;;;;0.30;0.30;;;16.40;68.20;;;;;;4977237;28;20077;-80
2024/03/26 02:16:20;;;;;;;0.30;0.30;;;16.40;68.20;;;;;;4989803;28;20093;-80
2024/03/26 02:18:45;;;;;;;0.52;0.52;;;16.40;68.20;;;;;;5005129;28;20041;-80
2024/03/26 02:21:11;;;;;;;0.40;0.35;;;16.40;68.20;;;;;;4998096;28;20124;-80
2024/03/26 02:23:36;;;;;;;0.45;0.45;;;16.40;68.30;;;;;;5008433;28;20049;-80
2024/03/26 02:26:02;;;;;;;0.40;0.40;;;16.40;68.40;;;;;;5005647;28;20392;-80
2024/03/26 02:28:28;;;;;;;0.35;0.35;;;16.40;68.50;;;;;;5004276;28;20080;-80
2024/03/26 02:30:53;;;;;;;0.28;0.28;;;16.40;68.50;;;;;;5001923;28;20060;-80
2024/03/26 02:33:19;;;;;;;0.50;0.50;;;16.40;68.40;;;;;;4990971;28;20042;-80
2024/03/26 02:35:44;;;;;;;0.35;0.35;;;16.40;68.40;;;;;;5004474;28;20141;-80
2024/03/26 02:38:10;;;;;;;0.50;0.50;;;16.40;68.50;;;;;;5001738;28;20096;-80
2024/03/26 02:40:35;;;;;;;0.85;0.40;;;16.30;68.60;;;;;;5012145;28;20046;-79
2024/03/26 02:43:01;;;;;;;0.30;0.30;;;16.40;69.20;;;;;;5002195;28;20046;-80
2024/03/26 02:45:27;;;;;;;0.40;0.40;;;16.40;68.50;;;;;;5023890;28;20422;-79
2024/03/26 02:47:53;;;;;;;0.40;0.40;;;16.40;68.40;;;;;;5018986;28;20750;-79
2024/03/26 02:50:18;;;;;;;0.30;0.30;;;16.30;68.40;;;;;;5018750;28;20042;-80
2024/03/26 02:52:44;;;;;;;0.52;0.40;;;16.40;68.40;;;;;;5008819;28;20101;-79
2024/03/26 02:55:09;;;;;;;0.60;0.40;;;16.40;68.60;;;;;;5020688;28;20132;-80
2024/03/26 02:57:35;;;;;;;0.20;0.20;;;16.30;68.40;;;;;;5009082;28;20080;-80
2024/03/26 03:00:00;;;;;;;0.28;0.28;;;16.30;68.40;;;;;;5012158;28;20517;-80
2024/03/26 03:02:26;;;;;;;0.20;0.20;;;16.40;68.40;;;;;;4981400;28;20042;-79
2024/03/26 03:04:52;;;;;;;0.30;0.30;;;16.40;68.60;;;;;;5000257;28;20042;-80
2024/03/26 03:07:17;;;;;;;0.40;0.40;;;16.30;68.30;;;;;;4997374;28;20069;-79
2024/03/26 03:09:45;;;;;;;0.30;0.30;;;16.40;68.50;;;;;;5019182;28;20057;-80
2024/03/26 03:12:11;;;;;;;0.30;0.30;;;16.40;68.50;;;;;;5001961;28;20041;-79
2024/03/26 03:14:37;;;;;;;0.47;0.40;;;16.40;68.40;;;;;;4991062;28;20071;-79
2024/03/26 03:17:02;;;;;;;0.28;0.28;;;16.40;68.50;;;;;;5004128;28;20041;-80
2024/03/26 03:19:28;;;;;;;0.20;0.20;;;16.30;68.50;;;;;;5007849;28;20507;-79
2024/03/26 03:21:53;;;;;;;0.30;0.20;;;16.40;68.40;;;;;;5021810;28;20052;-80
2024/03/26 03:24:19;;;;;;;0.20;0.20;;;16.30;68.50;;;;;;5015138;28;20446;-79
2024/03/26 03:26:45;;;;;;;0.40;0.30;;;16.30;68.50;;;;;;5007479;28;20050;-80
2024/03/26 03:29:10;;;;;;;0.30;0.30;;;16.30;68.40;;;;;;4992235;28;20516;-80
2024/03/26 03:31:36;;;;;;;0.30;0.30;;;16.30;68.50;;;;;;5022815;28;20044;-79
2024/03/26 03:34:01;;;;;;;0.20;0.20;;;16.40;68.50;;;;;;5016376;28;20095;-79
2024/03/26 03:36:27;;;;;;;0.30;0.30;;;16.30;68.60;;;;;;5020666;28;20045;-79
2024/03/26 03:38:52;;;;;;;0.40;0.40;;;16.30;68.60;;;;;;5026188;28;20069;-79
2024/03/26 03:41:18;;;;;;;0.40;0.40;;;16.30;68.60;;;;;;4995611;28;20044;-79
2024/03/26 03:43:44;;;;;;;0.35;0.35;;;16.30;68.50;;;;;;4997477;28;20140;-79
2024/03/26 03:46:10;;;;;;;0.35;0.35;;;16.30;68.60;;;;;;5025271;28;20136;-79
2024/03/26 03:48:35;;;;;;;0.30;0.30;;;16.30;68.60;;;;;;5007933;28;20057;-79
2024/03/26 03:51:01;;;;;;;0.32;0.30;;;16.30;68.50;;;;;;5019177;28;20037;-80
2024/03/26 03:53:27;;;;;;;0.30;0.30;;;16.30;68.60;;;;;;5003199;28;20068;-78
2024/03/26 03:55:52;;;;;;;0.20;0.20;;;16.30;68.50;;;;;;5008376;28;20050;-80
2024/03/26 03:58:18;;;;;;;0.30;0.30;;;16.30;68.30;;;;;;5002062;28;20048;-79
2024/03/26 04:00:43;;;;;;;0.20;0.20;;;16.30;68.30;;;;;;5023791;28;20045;-79
2024/03/26 04:03:09;;;;;;;0.30;0.20;;;16.30;68.20;;;;;;5017093;28;20137;-79
2024/03/26 04:05:38;;;;;;;0.25;0.20;;;16.30;68.30;;;;;;5008528;28;20042;-79
2024/03/26 04:08:03;;;;;;;0.30;0.30;;;16.30;68.20;;;;;;5019512;28;20503;-79
2024/03/26 04:10:31;;;;;;;0.25;0.25;;;16.30;68.30;;;;;;5016311;28;20136;-79
2024/03/26 04:12:56;;;;;;;0.35;0.28;;;16.30;68.30;;;;;;5014948;28;20055;-79
2024/03/26 04:15:23;;;;;;;0.20;0.20;;;16.30;68.40;;;;;;4982468;28;20483;-80
2024/03/26 04:17:51;;;;;;;0.32;0.30;;;16.30;68.40;;;;;;5000561;28;20057;-79
2024/03/26 04:20:17;;;;;;;0.50;0.30;;;16.30;68.40;;;;;;4996107;28;20124;-79
2024/03/26 04:22:48;;;;;;;0.40;0.40;;;16.30;68.50;;;;;;5012636;28;20030;-79
2024/03/26 04:25:14;;;;;;;0.30;0.30;;;16.30;68.50;;;;;;4975331;28;20068;-79
2024/03/26 04:27:40;;;;;;;0.10;0.10;;;16.30;68.40;;;;;;5012506;28;20050;-79
2024/03/26 04:30:07;;;;;;;0.40;0.40;;;16.30;68.40;;;;;;5031746;28;20054;-79
2024/03/26 04:32:33;;;;;;;0.30;0.30;;;16.30;68.40;;;;;;4990642;28;20033;-80
2024/03/26 04:34:59;;;;;;;0.20;0.20;;;16.30;68.50;;;;;;5022074;28;20045;-80
2024/03/26 04:37:24;;;;;;;0.20;0.20;;;16.30;68.50;;;;;;5015422;28;20048;-80
2024/03/26 04:39:50;;;;;;;0.40;0.40;;;16.30;68.40;;;;;;4989134;28;20068;-80
2024/03/26 04:42:16;;;;;;;0.30;0.30;;;16.30;68.50;;;;;;4999930;28;20057;-80
2024/03/26 04:44:41;;;;;;;0.20;0.20;;;16.30;69.20;;;;;;5013685;28;20514;-79
2024/03/26 04:47:07;;;;;;;0.20;0.20;;;16.30;68.40;;;;;;4993543;28;20054;-79
2024/03/26 04:49:33;;;;;;;0.20;0.20;;;16.30;68.50;;;;;;5012779;28;20411;-80
2024/03/26 04:51:58;;;;;;;0.20;0.10;;;16.30;68.50;;;;;;4989924;28;20049;-80
2024/03/26 04:54:24;;;;;;;0.30;0.30;;;16.20;68.40;;;;;;5013989;28;20042;-79
2024/03/26 04:56:50;;;;;;;0.25;0.25;;;16.30;68.50;;;;;;5003642;28;20046;-79
2024/03/26 04:59:15;;;;;;;0.20;0.20;;;16.30;68.40;;;;;;4995824;28;20063;-79
2024/03/26 05:01:41;;;;;;;0.20;0.20;;;16.30;68.40;;;;;;4981465;28;20038;-78
2024/03/26 05:04:06;;;;;;;0.57;0.20;;;16.30;68.50;;;;;;5015090;28;20045;-79
2024/03/26 05:06:32;;;;;;;0.20;0.20;;;16.20;68.40;;;;;;5007170;28;20525;-79
2024/03/26 05:08:57;;;;;;;0.35;0.20;;;16.20;68.40;;;;;;4998262;28;20107;-79
2024/03/26 05:11:23;;;;;;;0.30;0.30;;;16.20;68.40;;;;;;4990965;28;20415;-79
2024/03/26 05:13:49;;;;;;;0.20;0.20;;;16.20;68.40;;;;;;4998408;28;20045;-79
2024/03/26 05:16:14;;;;;;;0.20;0.20;;;16.30;68.50;;;;;;4987358;28;20509;-78
2024/03/26 05:18:40;;;;;;;0.20;0.20;;;16.20;68.50;;;;;;5000224;28;20045;-79
2024/03/26 05:21:05;;;;;;;0.25;0.20;;;16.20;68.40;;;;;;5005062;28;20054;-79
2024/03/26 05:23:31;;;;;;;0.17;0.17;;;16.20;68.40;;;;;;5007928;28;20060;-79
2024/03/26 05:25:56;;;;;;;0.13;0.10;;;16.20;68.50;;;;;;5028047;28;20045;-79
2024/03/26 05:28:22;;;;;;;0.10;0.10;;;16.20;68.50;;;;;;5003408;28;20532;-80
2024/03/26 05:30:48;;;;;;;0.30;0.30;;;16.20;68.50;;;;;;5008954;28;20048;-80
2024/03/26 05:33:13;;;;;;;0.20;0.20;;;16.20;68.60;;;;;;5029951;28;20117;-80
2024/03/26 05:35:42;;;;;;;0.10;0.10;;;16.20;69.30;;;;;;5005296;28;20487;-79
2024/03/26 05:38:08;;;;;;;0.20;0.10;;;16.20;68.60;;;;;;5032943;28;20042;-79
2024/03/26 05:40:34;;;;;;;0.10;0.10;;;16.20;68.60;;;;;;5028372;28;20046;-79
2024/03/26 05:42:59;;;;;;;0.88;0.30;;;16.20;68.50;;;;;;5024690;28;20091;-79
2024/03/26 05:45:25;;;;;;;0.60;0.20;;;16.20;68.50;;;;;;4999149;28;20075;-79
2024/03/26 05:47:51;;;;;;;0.10;0.10;;;16.20;68.50;;;;;;4994896;28;20069;-79
2024/03/26 05:50:16;;;;;;;0.30;0.20;;;16.20;68.50;;;;;;5001220;28;20041;-79
2024/03/26 05:52:42;;;;;;;0.20;0.20;;;16.20;68.40;;;;;;5007549;28;20626;-80
2024/03/26 05:55:08;;;;;;;0.20;0.20;;;16.20;68.60;;;;;;5014536;28;20045;-79
2024/03/26 05:57:33;;;;;;;0.20;0.20;;;16.20;68.50;;;;;;5004740;28;20034;-78
2024/03/26 05:59:59;;;;;;;0.20;0.20;;;16.20;68.60;;;;;;4996261;28;20042;-79
2024/03/26 06:02:24;;;;;;;0.10;0.10;;;16.20;68.60;;;;;;5011353;28;20586;-79
2024/03/26 06:04:50;;;;;;;0.10;0.10;;;16.20;68.60;;;;;;5013686;28;20038;-79
2024/03/26 06:07:16;;;;;;;0.20;0.20;;;16.20;68.40;;;;;;4996800;28;20041;-79
2024/03/26 06:09:41;;;;;;;0.20;0.20;;;16.20;68.40;;;;;;5010546;28;20045;-79
2024/03/26 06:12:09;;;;;;;1.52;0.25;;;16.20;68.50;;;;;;5015015;28;20029;-79
2024/03/26 06:14:34;;;;;;;1.58;0.10;;;16.20;69.00;;;;;;5010619;28;20042;-80
2024/03/26 06:17:00;;;;;;;0.10;0.10;;;16.20;68.60;;;;;;5009529;28;20507;-79
2024/03/26 06:19:26;;;;;;;0.28;0.20;;;16.20;68.60;;;;;;5014238;28;20100;-79
2024/03/26 06:21:52;;;;;;;0.10;0.10;;;16.20;68.60;;;;;;4999126;28;20046;-77
2024/03/26 06:24:18;;;;;;;0.10;0.10;;;16.20;68.60;;;;;;4996319;28;21720;-79
2024/03/26 06:26:43;;;;;;;0.30;0.30;;;16.20;68.70;;;;;;5009862;28;20507;-79
2024/03/26 06:29:09;;;;;;;0.20;0.20;;;16.20;68.70;;;;;;5018396;28;20511;-78
2024/03/26 06:31:34;;;;;;;0.10;0.10;;;16.30;68.60;;;;;;4979690;28;20034;-79
2024/03/26 06:34:00;;;;;;;3.30;0.25;;;16.20;68.60;;;;;;5018989;28;20041;-80
2024/03/26 06:36:25;;;;;;;0.80;0.10;;;16.30;68.70;;;;;;4983589;28;20418;-79
2024/03/26 06:38:51;;;;;;;0.10;0.10;;;16.30;68.80;;;;;;5013890;28;20099;-78
2024/03/26 06:41:17;;;;;;;0.20;0.10;;;16.30;68.70;;;;;;4978857;28;20045;-79
2024/03/26 06:43:42;;;;;;;1.08;0.40;;;16.30;69.00;;;;;;5013813;28;20058;-79
2024/03/26 06:46:08;;;;;;;0.22;0.20;;;16.30;68.90;;;;;;5024578;28;20465;-80
2024/03/26 06:48:33;;;;;;;0.20;0.20;;;16.30;68.90;;;;;;5007516;28;20050;-79
2024/03/26 06:50:59;;;;;;;0.20;0.20;;;16.30;69.10;;;;;;5025844;28;20060;-80
2024/03/26 06:53:25;;;;;;;0.98;0.20;;;16.30;69.40;;;;;;5020760;28;20077;-80
2024/03/26 06:55:50;;;;;;;0.20;0.20;;;16.30;69.40;;;;;;5008496;28;20045;-79
2024/03/26 06:58:16;;;;;;;0.80;0.20;;;16.20;69.60;;;;;;5025471;28;20053;-78
2024/03/26 07:00:41;;;;;;;0.20;0.20;;;16.30;69.60;;;;;;4991365;28;20101;-79
2024/03/26 07:03:07;;;;;;;0.30;0.28;;;16.30;70.70;;;;;;4994294;28;20046;-79
2024/03/26 07:05:33;;;;;;;1.58;0.20;;;16.30;70.20;;;;;;5024833;28;20057;-80
2024/03/26 07:07:58;;;;;;;0.30;0.17;;;16.30;71.30;;;;;;5024548;28;20514;-79
2024/03/26 07:10:24;;;;;;;1.40;0.30;;;16.30;71.90;;;;;;5018392;28;20045;-80
2024/03/26 07:12:49;;;;;;;0.70;0.20;;;16.30;71.50;;;;;;5022264;28;20571;-79
2024/03/26 07:15:15;;;;;;;1.38;0.10;;;16.20;71.30;;;;;;5019558;28;20111;-80
2024/03/26 07:17:40;;;;;;;0.20;0.20;;;16.20;71.40;;;;;;5026368;28;20033;-79
2024/03/26 07:20:09;;;;;;;1.88;0.55;;;16.20;71.20;;;;;;5023727;28;20056;-80
2024/03/26 07:22:34;;;;;;;0.30;0.28;;;16.20;72.00;;;;;;4993491;28;20049;-80
2024/03/26 07:25:00;;;;;;;0.30;0.20;;;16.30;71.80;;;;;;5019101;28;20096;-79
2024/03/26 07:27:26;;;;;;;0.15;0.13;;;16.20;72.10;;;;;;4997339;28;20112;-80
2024/03/26 07:29:51;;;;;;;1.95;0.20;;;16.30;72.60;;;;;;5020333;28;20137;-80
2024/03/26 07:32:17;;;;;;;0.30;0.30;;;16.30;72.50;;;;;;5024279;28;20037;-80
2024/03/26 07:34:43;;;;;;;0.17;0.17;;;16.30;72.00;;;;;;5006043;28;20095;-79
2024/03/26 07:37:08;;;;;;;0.20;0.10;;;16.30;72.40;;;;;;5004578;28;20046;-79
2024/03/26 07:39:35;;;;;;;1.02;0.17;;;16.30;72.40;;;;;;5021637;28;20518;-80
2024/03/26 07:42:00;;;;;;;0.30;0.10;;;16.30;72.00;;;;;;5007945;28;20467;-80
2024/03/26 07:44:26;;;;;;;0.50;0.20;;;16.20;72.10;;;;;;4992675;28;20080;-79
2024/03/26 07:46:51;;;;;;;0.22;0.20;;;16.20;72.70;;;;;;4997571;28;20037;-79
2024/03/26 07:49:17;;;;;;;0.20;0.20;;;16.20;73.10;;;;;;5026379;28;20065;-79
2024/03/26 07:51:43;;;;;;;0.20;0.20;;;16.30;72.70;;;;;;4999779;28;20054;-79
2024/03/26 07:54:09;;;;;;;0.10;0.10;;;16.20;72.80;;;;;;4996972;28;20491;-79
2024/03/26 07:56:34;;;;;;;1.20;0.57;;;16.30;73.10;;;;;;4973774;28;20057;-80
2024/03/26 07:59:00;;;;;;;6.65;0.50;;;16.30;72.80;;;;;;5003652;28;20111;-80
2024/03/26 08:01:26;;;;;;;0.30;0.30;;;16.30;72.80;;;;;;5021650;28;20053;-79
2024/03/26 08:03:51;;;;;;;0.30;0.20;;;16.30;73.20;;;;;;5020754;28;20103;-79
2024/03/26 08:06:17;;;;;;;0.10;0.10;;;16.30;73.10;;;;;;5010598;28;20454;-78
2024/03/26 08:08:49;;;;;;;0.20;0.15;;;16.30;72.90;;;;;;5000658;28;20056;-79
2024/03/26 08:11:14;;;;;;;0.30;0.10;;;16.30;73.10;;;;;;5016634;28;20058;-81
2024/03/26 08:13:40;;;;;;;0.10;0.10;;;16.30;72.90;;;;;;5020234;28;20110;-80
2024/03/26 08:16:07;;;;;;;0.20;0.20;;;16.30;72.80;;;;;;5003114;28;20081;-80
2024/03/26 08:18:32;;;;;;;0.30;0.30;;;16.30;72.90;;;;;;5014802;28;20041;-81
2024/03/26 08:21:00;;;;;;;0.30;0.20;;;16.30;72.30;;;;;;4998007;28;20048;-81
2024/03/26 08:23:25;;;;;;;1.65;0.30;;;16.30;72.50;;;;;;4996788;28;20120;-82
2024/03/26 08:25:52;;;;;;;0.80;0.32;;;16.30;72.50;;;;;;4995845;28;20073;-80
2024/03/26 08:28:17;;;;;;;0.20;0.20;;;16.30;72.60;;;;;;5009058;28;20041;-80
2024/03/26 08:30:43;;;;;;;0.10;0.10;;;16.30;72.50;;;;;;5020471;28;20144;-78
2024/03/26 08:33:09;;;;;;;0.20;0.20;;;16.30;72.60;;;;;;5009030;28;20577;-78
2024/03/26 08:35:41;;;;;;;0.17;0.17;;;16.30;73.40;;;;;;5002273;28;20045;-79
2024/03/26 08:38:07;;;;;;;0.10;0.10;;;16.30;73.40;;;;;;5005193;28;20102;-79
2024/03/26 08:40:33;;;;;;;0.30;0.20;;;16.40;74.50;;;;;;4998199;28;20089;-80
2024/03/26 08:42:58;;;;;;;0.20;0.20;;;16.30;74.10;;;;;;5018539;28;20144;-79
2024/03/26 08:45:24;;;;;;;0.17;0.15;;;16.30;74.00;;;;;;5025467;28;20491;-79
2024/03/26 08:47:50;;;;;;;0.65;0.28;;;16.30;74.20;;;;;;4972588;28;20064;-79
2024/03/26 08:50:17;;;;;;;0.10;0.10;;;16.30;74.50;;;;;;5008414;28;20037;-79
2024/03/26 08:52:43;;;;;;;0.60;0.10;;;16.30;74.60;;;;;;5025047;28;20060;-78
2024/03/26 08:55:08;;;;;;;1.10;0.17;;;16.30;74.30;;;;;;5022150;28;20038;-79
2024/03/26 08:57:34;;;;;;;0.30;0.13;;;16.30;74.40;;;;;;5011346;28;20045;-78
2024/03/26 08:59:59;;;;;;;1.80;0.10;;;16.30;74.60;;;;;;5003415;28;20041;-79
2024/03/26 09:02:25;;;;;;;0.10;0.10;;;16.30;74.80;;;;;;4987838;28;20038;-79
2024/03/26 09:04:51;;;;;;;0.30;0.20;;;16.30;74.70;;;;;;4995336;28;20038;-79
2024/03/26 09:07:16;;;;;;;0.30;0.10;;;16.30;74.90;;;;;;5011296;28;20042;-79
2024/03/26 09:09:42;;;;;;;0.10;0.10;;;16.30;75.00;;;;;;4999891;28;20040;-79
2024/03/26 09:12:09;;;;;;;0.17;0.15;;;16.30;75.10;;;;;;4992289;28;20566;-80
2024/03/26 09:14:35;;;;;;;0.20;0.20;;;16.30;75.20;;;;;;5024835;28;20034;-79
2024/03/26 09:17:03;;;;;;;0.20;0.20;;;16.30;75.30;;;;;;5009213;28;20033;-79
2024/03/26 09:19:29;;;;;;;0.17;0.17;;;16.30;75.10;;;;;;5000565;28;20072;-79
2024/03/26 09:21:55;;;;;;;1.27;0.10;;;16.30;75.30;;;;;;4992617;28;20118;-80
2024/03/26 09:24:21;;;;;;;0.70;0.20;;;16.30;75.40;;;;;;4991640;28;20042;-79
2024/03/26 09:26:46;;;;;;;0.40;0.40;;;16.30;75.30;;;;;;5018366;28;20483;-78
2024/03/26 09:29:12;;;;;;;0.40;0.22;;;16.30;75.30;;;;;;5010412;28;20127;-78
2024/03/26 09:31:38;;;;;;;0.75;0.30;;;16.30;75.40;;;;;;5028185;28;20049;-78
2024/03/26 09:34:04;;;;;;;0.55;0.10;;;16.30;75.30;;;;;;5021095;28;20617;-78
2024/03/26 09:36:30;;;;;;;0.55;0.20;;;16.30;75.50;;;;;;5020892;28;20406;-78
2024/03/26 09:38:56;;;;;;;0.20;0.20;;;16.30;75.50;;;;;;5003319;28;20045;-79
2024/03/26 09:41:22;;;;;;;0.30;0.20;;;16.30;75.60;;;;;;5011781;28;20033;-79
2024/03/26 09:43:49;;;;;;;0.80;0.40;;;16.30;75.40;;;;;;5006343;28;20107;-79
2024/03/26 09:46:15;;;;;;;0.20;0.20;;;16.30;75.70;;;;;;5032005;28;20386;-79
2024/03/26 09:48:41;;;;;;;0.43;0.22;;;16.30;74.50;;;;;;4981923;28;20521;-79
2024/03/26 09:51:07;;;;;;;0.30;0.20;;;16.30;74.60;;;;;;4969545;28;20061;-79
2024/03/26 09:53:32;;;;;;;0.43;0.20;;;16.30;74.70;;;;;;5004241;28;20045;-79
2024/03/26 09:55:58;;;;;;;0.68;0.68;;;16.30;75.40;;;;;;5008969;28;20037;-79
2024/03/26 09:58:23;;;;;;;2.45;1.58;;;16.40;80.00;;;;;;5028703;28;20029;-79
2024/03/26 10:00:49;;;;;;;1.73;1.63;;;16.40;78.30;;;;;;5010150;28;20042;-79
2024/03/26 10:03:20;;;;;;;3.80;2.47;;;16.30;80.30;;;;;;5003800;28;20136;-79
2024/03/26 10:05:48;;;;;;;2.92;2.15;;;16.30;80.10;;;;;;5009336;28;20543;-79
2024/03/26 10:08:14;;;;;;;1.77;1.63;;;16.40;78.20;;;;;;4990269;28;20104;-79
2024/03/26 10:10:43;;;;;;;1.75;1.23;;;16.50;77.50;;;;;;5014608;28;20499;-79
2024/03/26 10:13:10;;;;;;;3.10;1.08;;;16.50;76.30;;;;;;4994638;28;20061;-79
2024/03/26 10:15:39;;;;;;;1.98;1.02;;;16.50;74.80;;;;;;5027620;28;20457;-79
2024/03/26 10:18:06;;;;;;;2.72;1.52;;;16.60;74.80;;;;;;5022382;28;20045;-81
2024/03/26 10:20:31;;;;;;;2.92;1.17;;;16.50;77.90;;;;;;5019126;28;20210;-81
2024/03/26 10:23:03;;;;;;;0.85;0.60;;;16.40;77.40;;;;;;4993339;28;20141;-80
2024/03/26 10:25:29;;;;;;;0.57;0.57;;;16.40;76.40;;;;;;5023916;28;20022;-80
2024/03/26 10:27:56;;;;;;;1.05;0.50;;;16.40;76.00;;;;;;5025957;28;20048;-80
2024/03/26 10:30:22;;;;;;;0.73;0.50;;;16.40;75.80;;;;;;5015243;28;20053;-79
2024/03/26 10:32:49;;;;;;;0.38;0.30;;;16.30;75.50;;;;;;5016846;28;20041;-79
2024/03/26 10:35:15;;;;;;;0.43;0.40;;;16.40;75.40;;;;;;4985603;28;20408;-79
2024/03/26 10:37:40;;;;;;;0.77;0.47;;;16.40;75.70;;;;;;4994517;28;20041;-79
2024/03/26 10:40:09;;;;;;;0.95;0.40;;;16.40;75.70;;;;;;5006536;28;20132;-78
2024/03/26 10:42:47;;;;;;;0.75;0.60;;;16.40;75.50;;;;;;5020285;28;20045;-79
2024/03/26 10:45:13;;;;;;;0.60;0.60;;;16.40;75.60;;;;;;5030527;28;20054;-79
2024/03/26 10:47:38;;;;;;;0.60;0.55;;;16.40;75.40;;;;;;5019430;28;20415;-79
2024/03/26 10:50:05;;;;;;;0.77;0.77;;;16.40;75.10;;;;;;5012636;28;20132;-79
2024/03/26 10:52:31;;;;;;;0.68;0.65;;;16.40;74.60;;;;;;5010639;28;20507;-79
2024/03/26 10:54:58;;;;;;;0.65;0.60;;;16.50;75.20;;;;;;4992655;28;20052;-79
2024/03/26 10:57:23;;;;;;;1.08;0.98;;;16.50;74.60;;;;;;5007162;28;20041;-79
2024/03/26 10:59:49;;;;;;;0.80;0.80;;;16.50;74.70;;;;;;5016532;28;20126;-79
2024/03/26 11:02:14;;;;;;;4.65;4.45;;;16.50;74.30;;;;;;5007423;28;20406;-79
2024/03/26 11:04:40;;;;;;;5.90;5.50;;;16.50;76.30;;;;;;4989807;28;20040;-79
2024/03/26 11:07:06;;;;;;;4.43;4.00;;;16.50;75.80;;;;;;5022934;28;20833;-79
2024/03/26 11:09:31;;;;;;;3.38;3.17;;;16.50;75.50;;;;;;5001500;28;20042;-78
2024/03/26 11:11:58;;;;;;;3.03;2.83;;;16.70;91.50;;;;;;4998284;28;20045;-78
2024/03/26 11:14:24;;;;;;;2.47;2.00;;;16.70;89.30;;;;;;5000988;28;20041;-79
2024/03/26 11:16:49;;;;;;;2.10;2.00;;;16.70;87.90;;;;;;5027785;28;20103;-79
2024/03/26 11:19:18;;;;;;;1.70;1.60;;;16.60;81.80;;;;;;4998254;28;20038;-78
2024/03/26 11:21:44;;;;;;;1.70;1.60;;;16.60;77.20;;;;;;5021870;28;20124;-78
2024/03/26 11:24:23;;;;;;;1.65;1.55;;;16.60;75.00;;;;;;4984611;28;20164;-77
2024/03/26 11:26:50;;;;;;;1.55;1.45;;;16.60;74.30;;;;;;4992277;28;20053;-77
2024/03/26 11:29:16;;;;;;;1.80;1.70;;;16.60;74.40;;;;;;5023766;28;20045;-77
2024/03/26 11:31:42;;;;;;;1.73;1.40;;;16.60;74.60;;;;;;5006204;28;20045;-78
2024/03/26 11:34:08;;;;;;;1.90;1.70;;;16.60;75.00;;;;;;4999386;28;20045;-77
2024/03/26 11:36:35;;;;;;;1.80;1.42;;;16.50;73.60;;;;;;5004017;28;20030;-77
2024/03/26 11:39:00;;;;;;;1.92;1.70;;;16.00;71.90;;;;;;4999637;28;20038;-77
2024/03/26 11:41:27;;;;;;;1.60;1.50;;;15.80;73.70;;;;;;5018663;28;21056;-77
2024/03/26 11:43:53;;;;;;;1.30;1.20;;;16.00;74.50;;;;;;4988299;28;20063;-77
2024/03/26 11:46:19;;;;;;;1.55;1.45;;;16.20;74.50;;;;;;5006512;28;20128;-77
2024/03/26 11:48:55;;;;;;;1.77;1.25;;;16.30;74.00;;;;;;5026658;28;20538;-77
2024/03/26 11:51:21;;;;;;;1.70;1.60;;;16.30;73.80;;;;;;5017020;28;20061;-77
2024/03/26 11:53:47;;;;;;;1.23;1.13;;;16.30;73.60;;;;;;5022343;28;20037;-77
2024/03/26 11:56:13;;;;;;;2.05;1.45;;;16.30;73.60;;;;;;5006892;28;20576;-77
2024/03/26 11:58:38;;;;;;;1.60;1.50;;;16.30;74.00;;;;;;5007355;28;20049;-77
2024/03/26 12:01:05;;;;;;;2.53;1.60;;;16.40;74.00;;;;;;5022343;28;20396;-77
2024/03/26 12:03:30;;;;;;;2.53;1.88;;;16.40;74.20;;;;;;5011914;28;20038;-77
2024/03/26 12:05:56;;;;;;;1.48;1.38;;;16.30;74.20;;;;;;5009393;28;20163;-77
2024/03/26 12:08:22;;;;;;;1.35;1.25;;;16.40;74.30;;;;;;4991780;28;20057;-77
2024/03/26 12:10:47;;;;;;;2.72;1.60;;;16.40;74.50;;;;;;5013288;28;20511;-77
2024/03/26 12:13:13;;;;;;;1.30;1.20;;;16.40;74.40;;;;;;5016837;28;20052;-77
2024/03/26 12:15:39;;;;;;;1.42;1.33;;;16.40;74.50;;;;;;5024724;28;20045;-77
2024/03/26 12:18:05;;;;;;;1.13;1.02;;;16.40;74.60;;;;;;5012364;28;20121;-77
2024/03/26 12:20:31;;;;;;;1.10;1.00;;;16.40;74.70;;;;;;5015072;28;20072;-77
2024/03/26 12:22:56;;;;;;;1.10;1.10;;;16.40;74.90;;;;;;5017164;28;20046;-77
2024/03/26 12:25:22;;;;;;;1.33;1.15;;;16.40;75.10;;;;;;5009899;28;20047;-77
2024/03/26 12:27:48;;;;;;;1.23;1.13;;;16.40;75.40;;;;;;5013920;28;20511;-77
2024/03/26 12:30:13;;;;;;;1.42;1.33;;;16.40;75.70;;;;;;5007363;28;20046;-77
2024/03/26 12:32:39;;;;;;;1.38;1.27;;;16.40;75.50;;;;;;4996141;28;20046;-77
2024/03/26 12:35:05;;;;;;;2.15;1.30;;;16.40;75.60;;;;;;5008119;28;20042;-77
2024/03/26 12:37:30;;;;;;;0.80;0.80;;;16.40;75.70;;;;;;5025679;28;20026;-77
2024/03/26 12:39:56;;;;;;;0.90;0.90;;;16.40;75.60;;;;;;4999981;28;20033;-77